sensor_id;sensor_type;location;lat;lon;timestamp;P1;durP1;ratioP1;P2;durP2;ratioP2
58466;SDS011;44255;49.244;7.726;2022-11-15T04:31:32;8.85;;;4.80;;
58466;SDS011;44255;49.244;7.726;2022-11-15T04:33:57;10.57;;;5.07;;
58466;SDS011;44255;49.244;7.726;2022-11-15T04:36:23;8.30;;;4.40;;
58466;SDS011;44255;49.244;7.726;2022-11-15T04:39:06;6.57;;;3.97;;
58466;SDS011;44255;49.244;7.726;2022-11-15T04:41:32;9.77;;;4.07;;
58466;SDS011;44255;49.244;7.726;2022-11-15T04:43:57;5.93;;;3.90;;
58466;SDS011;44255;49.244;7.726;2022-11-15T04:46:23;8.43;;;4.10;;
58466;SDS011;44255;49.244;7.726;2022-11-15T04:48:49;7.63;;;4.30;;
58466;SDS011;44255;49.244;7.726;2022-11-15T04:51:15;7.97;;;4.00;;
58466;SDS011;44255;49.244;7.726;2022-11-15T04:53:40;5.68;;;4.03;;
58466;SDS011;44255;49.244;7.726;2022-11-15T04:56:05;8.43;;;3.70;;
58466;SDS011;44255;49.244;7.726;2022-11-15T04:58:31;9.23;;;4.80;;
58466;SDS011;44255;49.244;7.726;2022-11-15T05:00:56;5.57;;;4.37;;
58466;SDS011;44255;49.244;7.726;2022-11-15T05:03:21;8.63;;;4.43;;
58466;SDS011;44255;49.244;7.726;2022-11-15T05:06:06;6.03;;;4.60;;
58466;SDS011;44255;49.244;7.726;2022-11-15T05:08:31;5.07;;;3.22;;
58466;SDS011;44255;49.244;7.726;2022-11-15T05:10:57;7.20;;;3.65;;
58466;SDS011;44255;49.244;7.726;2022-11-15T05:13:22;4.70;;;3.30;;
58466;SDS011;44255;49.244;7.726;2022-11-15T05:15:47;5.90;;;3.50;;
58466;SDS011;44255;49.244;7.726;2022-11-15T05:18:12;9.90;;;6.20;;
58466;SDS011;44255;49.244;7.726;2022-11-15T05:20:38;7.40;;;3.97;;
58466;SDS011;44255;49.244;7.726;2022-11-15T05:23:03;4.40;;;3.67;;
58466;SDS011;44255;49.244;7.726;2022-11-15T05:25:28;6.80;;;3.57;;
58466;SDS011;44255;49.244;7.726;2022-11-15T05:27:54;4.25;;;3.10;;
58466;SDS011;44255;49.244;7.726;2022-11-15T05:30:19;6.70;;;3.30;;
58466;SDS011;44255;49.244;7.726;2022-11-15T05:32:44;7.13;;;2.93;;
58466;SDS011;44255;49.244;7.726;2022-11-15T05:35:12;3.17;;;2.57;;
58466;SDS011;44255;49.244;7.726;2022-11-15T05:37:43;3.95;;;2.90;;
58466;SDS011;44255;49.244;7.726;2022-11-15T05:40:08;6.13;;;2.70;;
58466;SDS011;44255;49.244;7.726;2022-11-15T05:42:34;2.45;;;2.10;;
58466;SDS011;44255;49.244;7.726;2022-11-15T05:44:59;3.87;;;2.80;;
58466;SDS011;44255;49.244;7.726;2022-11-15T05:47:27;4.70;;;2.75;;
58466;SDS011;44255;49.244;7.726;2022-11-15T05:49:54;7.10;;;3.22;;
58466;SDS011;44255;49.244;7.726;2022-11-15T05:57:15;9.88;;;6.15;;
58466;SDS011;44255;49.244;7.726;2022-11-15T05:59:40;16.55;;;7.80;;
58466;SDS011;44255;49.244;7.726;2022-11-15T06:02:08;18.00;;;8.13;;
58466;SDS011;44255;49.244;7.726;2022-11-15T06:04:34;6.03;;;4.68;;
58466;SDS011;44255;49.244;7.726;2022-11-15T06:06:59;11.27;;;6.95;;
58466;SDS011;44255;49.244;7.726;2022-11-15T06:09:24;9.97;;;6.53;;
58466;SDS011;44255;49.244;7.726;2022-11-15T06:11:50;10.93;;;7.67;;
58466;SDS011;44255;49.244;7.726;2022-11-15T06:14:15;13.70;;;9.20;;
58466;SDS011;44255;49.244;7.726;2022-11-15T06:16:40;13.37;;;8.57;;
58466;SDS011;44255;49.244;7.726;2022-11-15T06:19:06;13.20;;;8.83;;
58466;SDS011;44255;49.244;7.726;2022-11-15T06:21:31;15.73;;;8.27;;
58466;SDS011;44255;49.244;7.726;2022-11-15T06:23:57;9.77;;;7.17;;
58466;SDS011;44255;49.244;7.726;2022-11-15T06:26:22;9.37;;;6.23;;
58466;SDS011;44255;49.244;7.726;2022-11-15T06:28:47;7.57;;;4.43;;
58466;SDS011;44255;49.244;7.726;2022-11-15T06:31:12;6.60;;;4.37;;
58466;SDS011;44255;49.244;7.726;2022-11-15T06:33:38;9.13;;;5.77;;
58466;SDS011;44255;49.244;7.726;2022-11-15T06:36:04;18.23;;;7.82;;
58466;SDS011;44255;49.244;7.726;2022-11-15T06:38:31;19.42;;;8.60;;
58466;SDS011;44255;49.244;7.726;2022-11-15T06:41:03;14.97;;;8.20;;
58466;SDS011;44255;49.244;7.726;2022-11-15T06:43:30;18.55;;;8.45;;
58466;SDS011;44255;49.244;7.726;2022-11-15T06:45:57;23.02;;;10.13;;
58466;SDS011;44255;49.244;7.726;2022-11-15T06:48:23;19.85;;;10.98;;
58466;SDS011;44255;49.244;7.726;2022-11-15T06:50:56;17.53;;;10.37;;
58466;SDS011;44255;49.244;7.726;2022-11-15T06:53:23;41.28;;;22.00;;
58466;SDS011;44255;49.244;7.726;2022-11-15T06:58:15;42.85;;;22.23;;
58466;SDS011;44255;49.244;7.726;2022-11-15T07:00:41;36.58;;;18.75;;
58466;SDS011;44255;49.244;7.726;2022-11-15T07:03:06;39.77;;;19.90;;
58466;SDS011;44255;49.244;7.726;2022-11-15T07:05:31;34.57;;;16.53;;
58466;SDS011;44255;49.244;7.726;2022-11-15T07:07:57;32.73;;;16.67;;
58466;SDS011;44255;49.244;7.726;2022-11-15T07:10:23;38.33;;;16.63;;
58466;SDS011;44255;49.244;7.726;2022-11-15T07:12:50;36.38;;;16.77;;
58466;SDS011;44255;49.244;7.726;2022-11-15T07:15:17;32.80;;;14.75;;
58466;SDS011;44255;49.244;7.726;2022-11-15T07:17:43;27.73;;;13.07;;
58466;SDS011;44255;49.244;7.726;2022-11-15T07:20:09;27.80;;;12.10;;
58466;SDS011;44255;49.244;7.726;2022-11-15T07:22:35;22.90;;;10.77;;
58466;SDS011;44255;49.244;7.726;2022-11-15T07:25:00;38.17;;;17.83;;
58466;SDS011;44255;49.244;7.726;2022-11-15T07:27:25;38.83;;;18.10;;
58466;SDS011;44255;49.244;7.726;2022-11-15T07:29:50;126.47;;;44.77;;
58466;SDS011;44255;49.244;7.726;2022-11-15T07:32:16;94.50;;;37.17;;
58466;SDS011;44255;49.244;7.726;2022-11-15T07:34:41;68.57;;;30.45;;
58466;SDS011;44255;49.244;7.726;2022-11-15T07:37:06;65.80;;;29.87;;
58466;SDS011;44255;49.244;7.726;2022-11-15T07:39:32;53.03;;;25.47;;
58466;SDS011;44255;49.244;7.726;2022-11-15T07:41:57;38.57;;;20.67;;
58466;SDS011;44255;49.244;7.726;2022-11-15T07:44:41;57.50;;;25.33;;
58466;SDS011;44255;49.244;7.726;2022-11-15T07:47:06;49.70;;;21.87;;
58466;SDS011;44255;49.244;7.726;2022-11-15T07:49:31;68.83;;;25.77;;
58466;SDS011;44255;49.244;7.726;2022-11-15T07:51:57;73.53;;;28.40;;
58466;SDS011;44255;49.244;7.726;2022-11-15T07:54:22;41.93;;;19.93;;
58466;SDS011;44255;49.244;7.726;2022-11-15T07:56:47;27.60;;;14.63;;
58466;SDS011;44255;49.244;7.726;2022-11-15T07:59:12;21.93;;;14.80;;
58466;SDS011;44255;49.244;7.726;2022-11-15T08:01:38;23.80;;;15.33;;
58466;SDS011;44255;49.244;7.726;2022-11-15T08:04:03;26.00;;;16.10;;
58466;SDS011;44255;49.244;7.726;2022-11-15T08:06:28;25.50;;;15.00;;
58466;SDS011;44255;49.244;7.726;2022-11-15T08:08:53;24.43;;;13.83;;
58466;SDS011;44255;49.244;7.726;2022-11-15T08:11:19;27.37;;;14.63;;
58466;SDS011;44255;49.244;7.726;2022-11-15T08:13:44;28.30;;;16.83;;
58466;SDS011;44255;49.244;7.726;2022-11-15T08:16:09;32.97;;;16.47;;
58466;SDS011;44255;49.244;7.726;2022-11-15T08:18:36;32.38;;;17.67;;
58466;SDS011;44255;49.244;7.726;2022-11-15T08:21:02;36.80;;;20.23;;
58466;SDS011;44255;49.244;7.726;2022-11-15T08:23:28;37.60;;;19.95;;
58466;SDS011;44255;49.244;7.726;2022-11-15T08:25:58;56.78;;;27.75;;
58466;SDS011;44255;49.244;7.726;2022-11-15T08:28:25;42.20;;;21.98;;
58466;SDS011;44255;49.244;7.726;2022-11-15T08:30:50;30.67;;;17.50;;
58466;SDS011;44255;49.244;7.726;2022-11-15T08:33:16;19.17;;;12.07;;
58466;SDS011;44255;49.244;7.726;2022-11-15T08:35:41;22.90;;;13.10;;
58466;SDS011;44255;49.244;7.726;2022-11-15T08:38:07;18.33;;;12.93;;
58466;SDS011;44255;49.244;7.726;2022-11-15T08:40:33;22.27;;;12.43;;
58466;SDS011;44255;49.244;7.726;2022-11-15T08:42:58;19.97;;;12.70;;
58466;SDS011;44255;49.244;7.726;2022-11-15T08:45:27;17.10;;;12.38;;
58466;SDS011;44255;49.244;7.726;2022-11-15T08:47:52;17.83;;;13.60;;
58466;SDS011;44255;49.244;7.726;2022-11-15T08:50:17;18.17;;;13.23;;
58466;SDS011;44255;49.244;7.726;2022-11-15T08:52:43;19.27;;;13.50;;
58466;SDS011;44255;49.244;7.726;2022-11-15T08:55:08;16.77;;;12.37;;
58466;SDS011;44255;49.244;7.726;2022-11-15T08:57:33;24.57;;;15.93;;
58466;SDS011;44255;49.244;7.726;2022-11-15T08:59:58;25.77;;;17.37;;
58466;SDS011;44255;49.244;7.726;2022-11-15T09:02:24;32.60;;;20.73;;
58466;SDS011;44255;49.244;7.726;2022-11-15T09:04:49;32.53;;;22.90;;
58466;SDS011;44255;49.244;7.726;2022-11-15T09:07:14;35.53;;;21.57;;
58466;SDS011;44255;49.244;7.726;2022-11-15T09:09:40;32.20;;;19.63;;
58466;SDS011;44255;49.244;7.726;2022-11-15T09:12:06;28.02;;;17.88;;
58466;SDS011;44255;49.244;7.726;2022-11-15T09:14:33;25.67;;;17.77;;
58466;SDS011;44255;49.244;7.726;2022-11-15T09:16:58;26.27;;;16.27;;
58466;SDS011;44255;49.244;7.726;2022-11-15T09:19:24;27.38;;;18.60;;
58466;SDS011;44255;49.244;7.726;2022-11-15T09:21:49;26.97;;;17.80;;
58466;SDS011;44255;49.244;7.726;2022-11-15T09:24:15;39.50;;;23.03;;
58466;SDS011;44255;49.244;7.726;2022-11-15T09:26:40;43.20;;;25.77;;
58466;SDS011;44255;49.244;7.726;2022-11-15T09:29:06;32.10;;;21.23;;
58466;SDS011;44255;49.244;7.726;2022-11-15T09:31:31;26.20;;;16.97;;
58466;SDS011;44255;49.244;7.726;2022-11-15T09:33:56;31.23;;;18.23;;
58466;SDS011;44255;49.244;7.726;2022-11-15T09:36:22;31.77;;;18.20;;
58466;SDS011;44255;49.244;7.726;2022-11-15T09:38:47;34.57;;;18.10;;
58466;SDS011;44255;49.244;7.726;2022-11-15T09:44:04;28.87;;;16.13;;
58466;SDS011;44255;49.244;7.726;2022-11-15T09:46:49;31.60;;;18.63;;
58466;SDS011;44255;49.244;7.726;2022-11-15T09:49:33;27.10;;;16.92;;
58466;SDS011;44255;49.244;7.726;2022-11-15T09:51:58;27.00;;;17.00;;
58466;SDS011;44255;49.244;7.726;2022-11-15T09:54:28;25.08;;;16.15;;
58466;SDS011;44255;49.244;7.726;2022-11-15T09:57:02;16.42;;;11.38;;
58466;SDS011;44255;49.244;7.726;2022-11-15T10:02:37;11.02;;;6.00;;
58466;SDS011;44255;49.244;7.726;2022-11-15T10:05:14;6.90;;;5.20;;
58466;SDS011;44255;49.244;7.726;2022-11-15T10:07:55;6.88;;;5.05;;
58466;SDS011;44255;49.244;7.726;2022-11-15T10:10:29;6.55;;;4.50;;
58466;SDS011;44255;49.244;7.726;2022-11-15T10:13:01;5.78;;;4.32;;
58466;SDS011;44255;49.244;7.726;2022-11-15T10:15:27;7.10;;;4.75;;
58466;SDS011;44255;49.244;7.726;2022-11-15T10:17:55;6.90;;;4.20;;
58466;SDS011;44255;49.244;7.726;2022-11-15T10:20:50;4.07;;;2.80;;
58466;SDS011;44255;49.244;7.726;2022-11-15T10:23:20;4.18;;;2.70;;
58466;SDS011;44255;49.244;7.726;2022-11-15T10:25:48;5.95;;;2.95;;
58466;SDS011;44255;49.244;7.726;2022-11-15T10:30:56;9.05;;;5.35;;
58466;SDS011;44255;49.244;7.726;2022-11-15T10:33:35;9.52;;;5.38;;
58466;SDS011;44255;49.244;7.726;2022-11-15T10:38:49;3.78;;;2.80;;
58466;SDS011;44255;49.244;7.726;2022-11-15T10:49:32;3.53;;;3.22;;
58466;SDS011;44255;49.244;7.726;2022-11-15T10:52:19;4.20;;;3.22;;
58466;SDS011;44255;49.244;7.726;2022-11-15T10:55:21;4.50;;;3.28;;
58466;SDS011;44255;49.244;7.726;2022-11-15T11:03:57;3.22;;;2.65;;
58466;SDS011;44255;49.244;7.726;2022-11-15T11:06:47;2.42;;;2.15;;
58466;SDS011;44255;49.244;7.726;2022-11-15T11:09:39;2.90;;;2.25;;
58466;SDS011;44255;49.244;7.726;2022-11-15T11:12:29;2.42;;;2.10;;
58466;SDS011;44255;49.244;7.726;2022-11-15T11:15:10;2.90;;;2.10;;
58466;SDS011;44255;49.244;7.726;2022-11-15T11:18:01;3.10;;;2.30;;
58466;SDS011;44255;49.244;7.726;2022-11-15T11:20:37;2.72;;;2.08;;
58466;SDS011;44255;49.244;7.726;2022-11-15T11:29:19;5.00;;;2.00;;
58466;SDS011;44255;49.244;7.726;2022-11-15T11:41:19;2.40;;;2.15;;
58466;SDS011;44255;49.244;7.726;2022-11-15T11:50:43;3.95;;;2.70;;
58466;SDS011;44255;49.244;7.726;2022-11-15T11:53:14;3.03;;;2.10;;
58466;SDS011;44255;49.244;7.726;2022-11-15T11:55:53;3.97;;;2.40;;
58466;SDS011;44255;49.244;7.726;2022-11-15T12:01:10;2.88;;;2.30;;
58466;SDS011;44255;49.244;7.726;2022-11-15T12:07:28;3.85;;;2.50;;
58466;SDS011;44255;49.244;7.726;2022-11-15T12:15:32;2.55;;;2.08;;
58466;SDS011;44255;49.244;7.726;2022-11-15T12:18:30;2.40;;;1.63;;
58466;SDS011;44255;49.244;7.726;2022-11-15T12:22:08;2.40;;;1.55;;
58466;SDS011;44255;49.244;7.726;2022-11-15T12:27:36;1.30;;;1.17;;
58466;SDS011;44255;49.244;7.726;2022-11-15T12:30:22;1.80;;;1.50;;
58466;SDS011;44255;49.244;7.726;2022-11-15T12:32:54;4.43;;;2.95;;
58466;SDS011;44255;49.244;7.726;2022-11-15T12:38:03;2.08;;;1.50;;
58466;SDS011;44255;49.244;7.726;2022-11-15T12:40:30;1.42;;;1.25;;
58466;SDS011;44255;49.244;7.726;2022-11-15T12:43:32;1.90;;;1.30;;
58466;SDS011;44255;49.244;7.726;2022-11-15T12:46:03;3.30;;;1.67;;
58466;SDS011;44255;49.244;7.726;2022-11-15T12:51:02;2.10;;;1.20;;
58466;SDS011;44255;49.244;7.726;2022-11-15T12:53:31;1.80;;;1.20;;
58466;SDS011;44255;49.244;7.726;2022-11-15T13:01:14;1.67;;;1.20;;
58466;SDS011;44255;49.244;7.726;2022-11-15T13:07:05;1.48;;;1.10;;
58466;SDS011;44255;49.244;7.726;2022-11-15T13:17:30;1.77;;;1.20;;
58466;SDS011;44255;49.244;7.726;2022-11-15T13:23:10;1.55;;;1.05;;
58466;SDS011;44255;49.244;7.726;2022-11-15T13:28:36;1.20;;;1.02;;
58466;SDS011;44255;49.244;7.726;2022-11-15T13:31:36;1.60;;;1.05;;
58466;SDS011;44255;49.244;7.726;2022-11-15T13:37:34;1.20;;;1.10;;
58466;SDS011;44255;49.244;7.726;2022-11-15T13:48:58;1.35;;;1.17;;
58466;SDS011;44255;49.244;7.726;2022-11-15T13:54:25;1.33;;;1.15;;
58466;SDS011;44255;49.244;7.726;2022-11-15T14:03:39;1.73;;;1.23;;
58466;SDS011;44255;49.244;7.726;2022-11-15T14:06:12;2.13;;;1.20;;
58466;SDS011;44255;49.244;7.726;2022-11-15T14:12:21;1.38;;;1.10;;
58466;SDS011;44255;49.244;7.726;2022-11-15T14:15:00;2.10;;;1.10;;
58466;SDS011;44255;49.244;7.726;2022-11-15T14:20:34;2.17;;;1.40;;
58466;SDS011;44255;49.244;7.726;2022-11-15T14:26:33;1.83;;;1.30;;
58466;SDS011;44255;49.244;7.726;2022-11-15T14:29:30;3.58;;;1.52;;
58466;SDS011;44255;49.244;7.726;2022-11-15T14:32:24;2.03;;;1.23;;
58466;SDS011;44255;49.244;7.726;2022-11-15T14:35:20;1.60;;;1.10;;
58466;SDS011;44255;49.244;7.726;2022-11-15T14:38:03;1.85;;;1.40;;
58466;SDS011;44255;49.244;7.726;2022-11-15T14:40:37;1.25;;;1.15;;
58466;SDS011;44255;49.244;7.726;2022-11-15T14:43:07;2.55;;;1.25;;
58466;SDS011;44255;49.244;7.726;2022-11-15T14:45:36;2.50;;;1.15;;
58466;SDS011;44255;49.244;7.726;2022-11-15T14:48:08;1.80;;;1.23;;
58466;SDS011;44255;49.244;7.726;2022-11-15T14:50:37;2.53;;;1.38;;
58466;SDS011;44255;49.244;7.726;2022-11-15T14:53:14;1.85;;;1.40;;
58466;SDS011;44255;49.244;7.726;2022-11-15T14:55:48;1.70;;;1.35;;
58466;SDS011;44255;49.244;7.726;2022-11-15T14:58:19;1.63;;;1.20;;
58466;SDS011;44255;49.244;7.726;2022-11-15T15:00:48;1.33;;;1.17;;
58466;SDS011;44255;49.244;7.726;2022-11-15T15:03:29;3.53;;;1.70;;
58466;SDS011;44255;49.244;7.726;2022-11-15T15:06:24;2.60;;;1.77;;
58466;SDS011;44255;49.244;7.726;2022-11-15T15:08:53;2.45;;;1.80;;
58466;SDS011;44255;49.244;7.726;2022-11-15T15:11:25;2.55;;;1.80;;
58466;SDS011;44255;49.244;7.726;2022-11-15T15:14:07;3.38;;;1.95;;
58466;SDS011;44255;49.244;7.726;2022-11-15T15:16:38;3.92;;;1.90;;
58466;SDS011;44255;49.244;7.726;2022-11-15T15:19:33;2.10;;;1.50;;
58466;SDS011;44255;49.244;7.726;2022-11-15T15:22:16;2.05;;;1.58;;
58466;SDS011;44255;49.244;7.726;2022-11-15T15:24:50;2.45;;;1.60;;
58466;SDS011;44255;49.244;7.726;2022-11-15T15:27:26;3.15;;;1.80;;
58466;SDS011;44255;49.244;7.726;2022-11-15T15:30:00;2.42;;;1.60;;
58466;SDS011;44255;49.244;7.726;2022-11-15T15:32:25;7.13;;;2.40;;
58466;SDS011;44255;49.244;7.726;2022-11-15T15:34:50;2.70;;;2.13;;
58466;SDS011;44255;49.244;7.726;2022-11-15T15:37:21;5.70;;;3.67;;
58466;SDS011;44255;49.244;7.726;2022-11-15T15:39:49;5.88;;;3.20;;
58466;SDS011;44255;49.244;7.726;2022-11-15T15:42:34;5.05;;;3.15;;
58466;SDS011;44255;49.244;7.726;2022-11-15T15:45:12;8.75;;;5.88;;
58466;SDS011;44255;49.244;7.726;2022-11-15T15:47:42;11.65;;;7.60;;
58466;SDS011;44255;49.244;7.726;2022-11-15T15:50:31;8.38;;;5.00;;
58466;SDS011;44255;49.244;7.726;2022-11-15T15:53:07;4.93;;;3.80;;
58466;SDS011;44255;49.244;7.726;2022-11-15T15:55:36;3.15;;;2.38;;
58466;SDS011;44255;49.244;7.726;2022-11-15T15:58:10;2.90;;;1.70;;
58466;SDS011;44255;49.244;7.726;2022-11-15T16:00:41;1.65;;;1.55;;
58466;SDS011;44255;49.244;7.726;2022-11-15T16:03:18;3.90;;;2.50;;
58466;SDS011;44255;49.244;7.726;2022-11-15T16:05:59;2.47;;;1.60;;
58466;SDS011;44255;49.244;7.726;2022-11-15T16:08:34;2.40;;;1.98;;
58466;SDS011;44255;49.244;7.726;2022-11-15T16:11:05;3.05;;;2.22;;
58466;SDS011;44255;49.244;7.726;2022-11-15T16:13:38;2.97;;;2.15;;
58466;SDS011;44255;49.244;7.726;2022-11-15T16:16:26;3.35;;;2.17;;
58466;SDS011;44255;49.244;7.726;2022-11-15T16:18:55;2.83;;;2.30;;
58466;SDS011;44255;49.244;7.726;2022-11-15T16:21:23;4.30;;;2.05;;
58466;SDS011;44255;49.244;7.726;2022-11-15T16:24:11;3.75;;;2.45;;
58466;SDS011;44255;49.244;7.726;2022-11-15T16:26:57;2.70;;;2.00;;
58466;SDS011;44255;49.244;7.726;2022-11-15T16:29:31;2.97;;;1.90;;
58466;SDS011;44255;49.244;7.726;2022-11-15T16:32:07;7.55;;;4.75;;
58466;SDS011;44255;49.244;7.726;2022-11-15T16:34:52;4.15;;;2.63;;
58466;SDS011;44255;49.244;7.726;2022-11-15T16:37:25;10.90;;;7.68;;
58466;SDS011;44255;49.244;7.726;2022-11-15T16:39:51;13.38;;;6.45;;
58466;SDS011;44255;49.244;7.726;2022-11-15T16:42:16;8.60;;;5.80;;
58466;SDS011;44255;49.244;7.726;2022-11-15T16:44:42;3.53;;;2.88;;
58466;SDS011;44255;49.244;7.726;2022-11-15T16:47:16;3.93;;;2.60;;
58466;SDS011;44255;49.244;7.726;2022-11-15T16:49:43;7.20;;;4.90;;
58466;SDS011;44255;49.244;7.726;2022-11-15T16:52:09;13.38;;;8.85;;
58466;SDS011;44255;49.244;7.726;2022-11-15T16:54:34;11.95;;;7.55;;
58466;SDS011;44255;49.244;7.726;2022-11-15T16:57:00;6.80;;;4.63;;
58466;SDS011;44255;49.244;7.726;2022-11-15T16:59:25;13.33;;;8.77;;
58466;SDS011;44255;49.244;7.726;2022-11-15T17:01:50;10.57;;;7.27;;
58466;SDS011;44255;49.244;7.726;2022-11-15T17:04:17;10.55;;;7.20;;
58466;SDS011;44255;49.244;7.726;2022-11-15T17:06:46;13.80;;;7.95;;
58466;SDS011;44255;49.244;7.726;2022-11-15T17:09:19;14.00;;;8.55;;
58466;SDS011;44255;49.244;7.726;2022-11-15T17:11:47;19.40;;;12.65;;
58466;SDS011;44255;49.244;7.726;2022-11-15T17:14:12;18.30;;;11.27;;
58466;SDS011;44255;49.244;7.726;2022-11-15T17:16:38;17.40;;;10.77;;
58466;SDS011;44255;49.244;7.726;2022-11-15T17:19:10;18.15;;;9.90;;
58466;SDS011;44255;49.244;7.726;2022-11-15T17:21:37;6.07;;;3.47;;
58466;SDS011;44255;49.244;7.726;2022-11-15T17:24:03;7.80;;;4.67;;
58466;SDS011;44255;49.244;7.726;2022-11-15T17:26:28;7.03;;;4.33;;
58466;SDS011;44255;49.244;7.726;2022-11-15T17:28:54;8.40;;;4.77;;
58466;SDS011;44255;49.244;7.726;2022-11-15T17:31:21;8.60;;;5.47;;
58466;SDS011;44255;49.244;7.726;2022-11-15T17:33:46;21.77;;;11.87;;
58466;SDS011;44255;49.244;7.726;2022-11-15T17:36:11;17.07;;;10.17;;
58466;SDS011;44255;49.244;7.726;2022-11-15T17:38:37;17.10;;;9.63;;
58466;SDS011;44255;49.244;7.726;2022-11-15T17:41:06;22.43;;;11.63;;
58466;SDS011;44255;49.244;7.726;2022-11-15T17:43:34;29.27;;;13.60;;
58466;SDS011;44255;49.244;7.726;2022-11-15T17:46:03;29.10;;;13.38;;
58466;SDS011;44255;49.244;7.726;2022-11-15T17:48:29;39.40;;;15.40;;
58466;SDS011;44255;49.244;7.726;2022-11-15T17:50:58;43.00;;;20.17;;
58466;SDS011;44255;49.244;7.726;2022-11-15T17:53:25;30.98;;;18.15;;
58466;SDS011;44255;49.244;7.726;2022-11-15T17:58:16;45.60;;;23.50;;
58466;SDS011;44255;49.244;7.726;2022-11-15T18:00:43;47.70;;;24.98;;
58466;SDS011;44255;49.244;7.726;2022-11-15T18:03:11;36.00;;;17.08;;
58466;SDS011;44255;49.244;7.726;2022-11-15T18:05:37;28.92;;;15.82;;
58466;SDS011;44255;49.244;7.726;2022-11-15T18:08:03;26.15;;;13.02;;
58466;SDS011;44255;49.244;7.726;2022-11-15T18:10:28;30.13;;;16.17;;
58466;SDS011;44255;49.244;7.726;2022-11-15T18:12:54;35.90;;;17.17;;
58466;SDS011;44255;49.244;7.726;2022-11-15T18:15:19;49.67;;;18.60;;
58466;SDS011;44255;49.244;7.726;2022-11-15T18:17:45;43.90;;;17.42;;
58466;SDS011;44255;49.244;7.726;2022-11-15T18:20:11;45.25;;;18.35;;
58466;SDS011;44255;49.244;7.726;2022-11-15T18:22:36;44.60;;;18.90;;
58466;SDS011;44255;49.244;7.726;2022-11-15T18:25:01;37.00;;;17.17;;
58466;SDS011;44255;49.244;7.726;2022-11-15T18:27:27;31.93;;;16.07;;
58466;SDS011;44255;49.244;7.726;2022-11-15T18:29:52;36.83;;;15.47;;
58466;SDS011;44255;49.244;7.726;2022-11-15T18:32:17;40.80;;;19.13;;
58466;SDS011;44255;49.244;7.726;2022-11-15T18:34:42;48.20;;;22.23;;
58466;SDS011;44255;49.244;7.726;2022-11-15T18:37:08;31.93;;;15.03;;
58466;SDS011;44255;49.244;7.726;2022-11-15T18:39:33;25.23;;;12.77;;
58466;SDS011;44255;49.244;7.726;2022-11-15T18:41:58;24.60;;;11.97;;
58466;SDS011;44255;49.244;7.726;2022-11-15T18:44:24;29.38;;;14.88;;
58466;SDS011;44255;49.244;7.726;2022-11-15T18:46:49;47.00;;;21.27;;
58466;SDS011;44255;49.244;7.726;2022-11-15T18:49:15;33.95;;;16.42;;
58466;SDS011;44255;49.244;7.726;2022-11-15T18:51:44;33.63;;;15.68;;
58466;SDS011;44255;49.244;7.726;2022-11-15T18:54:10;29.83;;;15.90;;
58466;SDS011;44255;49.244;7.726;2022-11-15T18:56:38;25.55;;;16.02;;
58466;SDS011;44255;49.244;7.726;2022-11-15T18:59:04;42.53;;;21.73;;
58466;SDS011;44255;49.244;7.726;2022-11-15T19:03:58;36.95;;;18.48;;
58466;SDS011;44255;49.244;7.726;2022-11-15T19:06:28;35.88;;;18.45;;
58466;SDS011;44255;49.244;7.726;2022-11-15T19:08:54;31.57;;;16.50;;
58466;SDS011;44255;49.244;7.726;2022-11-15T19:11:22;32.33;;;17.35;;
58466;SDS011;44255;49.244;7.726;2022-11-15T19:13:54;26.63;;;14.85;;
58466;SDS011;44255;49.244;7.726;2022-11-15T19:16:21;35.38;;;21.17;;
58466;SDS011;44255;49.244;7.726;2022-11-15T19:18:51;29.42;;;16.27;;
58466;SDS011;44255;49.244;7.726;2022-11-15T19:21:17;39.97;;;21.35;;
58466;SDS011;44255;49.244;7.726;2022-11-15T19:23:42;46.07;;;20.87;;
58466;SDS011;44255;49.244;7.726;2022-11-15T19:26:09;42.17;;;19.73;;
58466;SDS011;44255;49.244;7.726;2022-11-15T19:28:36;38.05;;;16.00;;
58466;SDS011;44255;49.244;7.726;2022-11-15T19:31:06;26.40;;;12.85;;
58466;SDS011;44255;49.244;7.726;2022-11-15T19:33:34;34.25;;;16.67;;
58466;SDS011;44255;49.244;7.726;2022-11-15T19:36:03;27.60;;;15.63;;
58466;SDS011;44255;49.244;7.726;2022-11-15T19:38:30;30.45;;;17.35;;
58466;SDS011;44255;49.244;7.726;2022-11-15T19:40:59;28.25;;;18.55;;
58466;SDS011;44255;49.244;7.726;2022-11-15T19:43:29;28.60;;;18.00;;
58466;SDS011;44255;49.244;7.726;2022-11-15T19:45:56;47.15;;;26.95;;
58466;SDS011;44255;49.244;7.726;2022-11-15T19:48:23;64.95;;;36.80;;
58466;SDS011;44255;49.244;7.726;2022-11-15T19:50:49;54.35;;;31.80;;
58466;SDS011;44255;49.244;7.726;2022-11-15T19:53:15;57.60;;;32.05;;
58466;SDS011;44255;49.244;7.726;2022-11-15T19:55:41;47.42;;;27.98;;
58466;SDS011;44255;49.244;7.726;2022-11-15T19:58:06;43.67;;;25.23;;
58466;SDS011;44255;49.244;7.726;2022-11-15T20:00:32;38.23;;;23.57;;
58466;SDS011;44255;49.244;7.726;2022-11-15T20:02:57;30.83;;;19.43;;
58466;SDS011;44255;49.244;7.726;2022-11-15T20:05:22;27.00;;;17.37;;
58466;SDS011;44255;49.244;7.726;2022-11-15T20:07:48;30.17;;;17.98;;
58466;SDS011;44255;49.244;7.726;2022-11-15T20:10:13;32.53;;;20.73;;
58466;SDS011;44255;49.244;7.726;2022-11-15T20:12:39;57.97;;;33.25;;
58466;SDS011;44255;49.244;7.726;2022-11-15T20:15:04;24.63;;;16.93;;
58466;SDS011;44255;49.244;7.726;2022-11-15T20:17:30;38.97;;;22.42;;
58466;SDS011;44255;49.244;7.726;2022-11-15T20:19:55;24.03;;;15.60;;
58466;SDS011;44255;49.244;7.726;2022-11-15T20:22:22;21.45;;;13.85;;
58466;SDS011;44255;49.244;7.726;2022-11-15T20:24:47;15.43;;;9.15;;
58466;SDS011;44255;49.244;7.726;2022-11-15T20:27:13;15.93;;;9.00;;
58466;SDS011;44255;49.244;7.726;2022-11-15T20:29:38;19.27;;;13.45;;
58466;SDS011;44255;49.244;7.726;2022-11-15T20:32:04;22.83;;;13.93;;
58466;SDS011;44255;49.244;7.726;2022-11-15T20:34:29;16.73;;;11.67;;
58466;SDS011;44255;49.244;7.726;2022-11-15T20:36:54;19.53;;;12.10;;
58466;SDS011;44255;49.244;7.726;2022-11-15T20:39:20;17.40;;;11.40;;
58466;SDS011;44255;49.244;7.726;2022-11-15T20:41:45;17.97;;;11.17;;
58466;SDS011;44255;49.244;7.726;2022-11-15T20:44:10;17.90;;;12.40;;
58466;SDS011;44255;49.244;7.726;2022-11-15T20:46:35;26.43;;;15.53;;
58466;SDS011;44255;49.244;7.726;2022-11-15T20:49:01;20.33;;;14.17;;
58466;SDS011;44255;49.244;7.726;2022-11-15T20:51:26;21.77;;;15.57;;
58466;SDS011;44255;49.244;7.726;2022-11-15T20:53:51;24.33;;;15.47;;
58466;SDS011;44255;49.244;7.726;2022-11-15T20:56:17;25.53;;;15.87;;
58466;SDS011;44255;49.244;7.726;2022-11-15T20:58:44;23.65;;;15.45;;
58466;SDS011;44255;49.244;7.726;2022-11-15T21:01:10;21.67;;;14.63;;
58466;SDS011;44255;49.244;7.726;2022-11-15T21:03:38;24.15;;;15.80;;
58466;SDS011;44255;49.244;7.726;2022-11-15T21:06:03;21.05;;;14.80;;
58466;SDS011;44255;49.244;7.726;2022-11-15T21:08:29;23.98;;;15.73;;
58466;SDS011;44255;49.244;7.726;2022-11-15T21:11:17;24.83;;;16.17;;
58466;SDS011;44255;49.244;7.726;2022-11-15T21:14:01;17.98;;;12.30;;
58466;SDS011;44255;49.244;7.726;2022-11-15T21:16:26;16.30;;;10.57;;
58466;SDS011;44255;49.244;7.726;2022-11-15T21:18:52;4.87;;;4.00;;
58466;SDS011;44255;49.244;7.726;2022-11-15T21:21:17;5.17;;;2.37;;
58466;SDS011;44255;49.244;7.726;2022-11-15T21:23:42;19.67;;;13.10;;
58466;SDS011;44255;49.244;7.726;2022-11-15T21:26:07;20.27;;;13.27;;
58466;SDS011;44255;49.244;7.726;2022-11-15T21:28:33;19.47;;;12.67;;
58466;SDS011;44255;49.244;7.726;2022-11-15T21:30:58;16.13;;;10.47;;
58466;SDS011;44255;49.244;7.726;2022-11-15T21:35:52;22.40;;;14.68;;